Time;durP1;ratioP1;P1;durP2;ratioP2;P2;SDS_P1;SDS_P2;PMS_P1;PMS_P2;Temp;Humidity;BMP_temperature;BMP_pressure;BME280_temperature;BME280_humidity;BME280_pressure;Samples;Min_cycle;Max_cycle;Signal;HPM_P1;HPM_P2
2022/08/01 00:00:03;;;;;;;11.93;7.07;;;;;;;20.53;100.00;101582.13;5092404;27;20522;-61
2022/08/01 00:02:30;;;;;;;11.52;7.22;;;;;;;20.48;100.00;101591.69;5109955;27;20047;-61
2022/08/01 00:04:57;;;;;;;14.50;8.10;;;;;;;20.48;100.00;101587.22;5116790;27;20047;-61
2022/08/01 00:07:24;;;;;;;12.48;7.85;;;;;;;20.52;100.00;101587.63;5096153;27;20473;-60
2022/08/01 00:09:50;;;;;;;11.40;7.85;;;;;;;20.54;100.00;101588.25;5095806;28;20040;-61
2022/08/01 00:12:16;;;;;;;11.43;7.80;;;;;;;20.50;100.00;101590.50;5100432;27;20538;-60
2022/08/01 00:14:43;;;;;;;9.73;7.35;;;;;;;20.49;100.00;101590.69;5104480;27;20054;-60
2022/08/01 00:17:10;;;;;;;10.85;6.88;;;;;;;20.48;100.00;101587.22;5091575;28;20518;-61
2022/08/01 00:19:36;;;;;;;10.05;7.15;;;;;;;20.42;100.00;101589.81;5103226;27;20056;-60
2022/08/01 00:22:03;;;;;;;13.02;7.53;;;;;;;20.41;100.00;101585.50;5097735;27;20051;-60
2022/08/01 00:24:30;;;;;;;11.60;8.20;;;;;;;20.32;100.00;101590.97;5097291;27;20446;-60
2022/08/01 00:26:56;;;;;;;10.45;7.35;;;;;;;20.38;100.00;101586.69;5098644;27;20043;-61
2022/08/01 00:29:22;;;;;;;12.50;7.68;;;;;;;20.39;100.00;101590.22;5103787;27;20054;-61
2022/08/01 00:32:09;;;;;;;13.48;8.38;;;;;;;20.35;100.00;101593.25;5112475;27;20058;-61
2022/08/01 00:34:35;;;;;;;12.23;8.55;;;;;;;20.31;100.00;101596.50;5106442;27;20292;-61
2022/08/01 00:37:02;;;;;;;13.90;8.88;;;;;;;20.29;100.00;101591.34;5098002;27;20048;-59
2022/08/01 00:39:28;;;;;;;13.88;8.60;;;;;;;20.31;100.00;101583.19;5128388;27;20067;-59
2022/08/01 00:41:55;;;;;;;12.80;8.18;;;;;;;20.34;100.00;101588.91;5101852;27;20051;-59
2022/08/01 00:44:27;;;;;;;12.57;9.27;;;;;;;20.30;100.00;101579.66;5107785;27;20115;-59
2022/08/01 00:46:53;;;;;;;12.38;8.93;;;;;;;20.31;100.00;101583.19;5108795;27;20055;-60
2022/08/01 00:49:19;;;;;;;15.45;9.55;;;;;;;20.29;100.00;101591.34;5101640;27;20750;-60
2022/08/01 00:51:46;;;;;;;14.75;10.52;;;;;;;20.33;100.00;101586.47;5105481;27;20051;-59
2022/08/01 00:54:13;;;;;;;15.07;11.25;;;;;;;20.32;100.00;101590.16;5108173;27;20046;-60
2022/08/01 00:56:43;;;;;;;15.02;10.88;;;;;;;20.25;100.00;101583.94;5116255;27;20043;-61
2022/08/01 00:59:11;;;;;;;13.63;11.05;;;;;;;20.27;100.00;101587.25;5102197;27;20424;-60
2022/08/01 01:01:39;;;;;;;16.23;11.40;;;;;;;20.25;100.00;101583.94;5102783;28;20480;-60
2022/08/01 01:04:12;;;;;;;15.05;10.93;;;;;;;20.25;100.00;101584.78;5077776;28;20896;-60
2022/08/01 01:06:48;;;;;;;17.05;12.18;;;;;;;20.26;100.00;101586.41;5100187;28;20052;-61
2022/08/01 01:09:34;;;;;;;13.38;10.55;;;;;;;20.24;100.00;101588.44;5109537;28;20043;-60
2022/08/01 01:12:17;;;;;;;18.88;11.45;;;;;;;20.23;100.00;101591.28;5111617;27;20053;-59
2022/08/01 01:15:10;;;;;;;16.77;12.00;;;;;;;20.22;100.00;101590.47;5107084;27;20054;-60
2022/08/01 01:17:46;;;;;;;15.75;11.80;;;;;;;20.19;100.00;101593.53;5100392;27;20488;-61
2022/08/01 01:20:18;;;;;;;19.05;12.45;;;;;;;20.15;100.00;101586.94;5098233;28;20051;-60
2022/08/01 01:22:53;;;;;;;15.63;11.60;;;;;;;20.13;100.00;101591.59;5109018;27;20043;-59
2022/08/01 01:25:36;;;;;;;18.35;11.70;;;;;;;20.16;100.00;101588.56;5105151;28;20296;-59
2022/08/01 01:28:29;;;;;;;16.48;11.63;;;;;;;20.13;100.00;101588.94;5088511;28;20054;-61
2022/08/01 01:30:58;;;;;;;14.73;10.65;;;;;;;20.13;100.00;101587.13;5102076;28;20507;-61
2022/08/01 01:33:28;;;;;;;16.05;11.02;;;;;;;20.18;100.00;101591.06;5068683;28;20059;-60
2022/08/01 01:36:01;;;;;;;16.23;11.18;;;;;;;20.09;100.00;101583.19;5101438;28;20055;-60
2022/08/01 01:38:31;;;;;;;15.45;10.13;;;;;;;20.06;100.00;101596.06;5104931;28;20053;-60
2022/08/01 01:40:59;;;;;;;14.63;9.95;;;;;;;20.07;100.00;101587.03;5110518;27;20051;-61
2022/08/01 01:43:28;;;;;;;17.30;10.48;;;;;;;20.06;100.00;101588.91;5119146;27;20572;-61
2022/08/01 01:46:00;;;;;;;13.15;9.40;;;;;;;20.01;100.00;101596.63;5094422;27;20423;-60
2022/08/01 01:48:28;;;;;;;16.35;9.85;;;;;;;20.03;100.00;101594.63;5112629;27;20113;-61
2022/08/01 01:50:56;;;;;;;17.90;9.35;;;;;;;20.01;100.00;101598.47;5100271;27;20488;-61
2022/08/01 01:53:23;;;;;;;;;;;;;;;20.04;100.00;101598.09;5114761;27;20317;-61
2022/08/01 01:55:55;;;;;;;11.45;8.25;;;;;;;20.07;100.00;101597.69;5112617;27;20418;-61
2022/08/01 01:58:23;;;;;;;15.95;10.07;;;;;;;20.01;100.00;101598.47;5097368;27;20535;-60
2022/08/01 02:00:51;;;;;;;11.95;8.73;;;;;;;20.04;100.00;101595.44;5113102;27;20272;-60
2022/08/01 02:03:19;;;;;;;13.55;8.40;;;;;;;20.05;100.00;101597.06;5093558;28;20062;-60
2022/08/01 02:05:46;;;;;;;12.48;7.70;;;;;;;20.04;100.00;101592.78;5107592;27;20051;-60
2022/08/01 02:08:16;;;;;;;13.48;7.90;;;;;;;20.00;100.00;101587.00;5102060;27;20067;-61
2022/08/01 02:11:17;;;;;;;13.25;8.60;;;;;;;20.01;100.00;101596.63;5110014;27;20051;-60
2022/08/01 02:13:36;;;;;;;15.90;8.63;;;;;;;19.93;100.00;101597.59;5098866;27;20138;-60
2022/08/01 02:16:04;;;;;;;11.75;7.28;;;;;;;19.91;100.00;101593.44;5105951;27;20047;-59
2022/08/01 02:18:31;;;;;;;;;;;;;;;19.90;100.00;101602.47;5108406;27;20050;-60
2022/08/01 02:21:00;;;;;;;12.38;7.30;;;;;;;19.89;100.00;101601.63;5093767;28;20414;-59
2022/08/01 02:23:32;;;;;;;14.45;7.78;;;;;;;19.84;100.00;101603.22;5104809;27;20088;-60
2022/08/01 02:26:00;;;;;;;16.50;7.88;;;;;;;19.85;100.00;101591.53;5103307;27;20529;-59
2022/08/01 02:28:46;;;;;;;12.35;7.20;;;;;;;19.86;100.00;101590.56;5096520;27;20051;-60
2022/08/01 02:31:16;;;;;;;12.73;7.47;;;;;;;19.87;100.00;101589.53;5105194;27;20050;-59
2022/08/01 02:33:45;;;;;;;16.15;8.25;;;;;;;19.93;100.00;101586.94;5119148;27;20049;-61
2022/08/01 02:36:16;;;;;;;13.95;8.07;;;;;;;19.87;100.00;101589.53;5114172;27;20784;-60
2022/08/01 02:39:06;;;;;;;13.68;7.40;;;;;;;19.83;100.00;101589.06;5093684;28;20055;-59
2022/08/01 02:41:35;;;;;;;13.18;7.07;;;;;;;19.86;100.00;101585.22;5109342;27;20055;-59
2022/08/01 02:44:06;;;;;;;16.35;8.07;;;;;;;19.83;100.00;101596.25;5095359;27;20054;-58
2022/08/01 02:46:43;;;;;;;14.35;7.88;;;;;;;19.85;100.00;101592.38;5122957;27;20052;-59
2022/08/01 02:49:11;;;;;;;14.23;8.40;;;;;;;19.78;100.00;101604.81;5097787;27;20054;-58
2022/08/01 02:51:40;;;;;;;11.90;7.50;;;;;;;19.78;100.00;101599.47;5101704;28;20263;-60
2022/08/01 02:54:09;;;;;;;12.10;7.47;;;;;;;19.76;100.00;101604.16;5106822;27;20057;-60
2022/08/01 02:56:37;;;;;;;11.98;7.15;;;;;;;19.78;100.00;101598.63;5106072;27;20051;-60
2022/08/01 02:59:09;;;;;;;10.35;6.65;;;;;;;19.86;100.00;101590.56;5112365;27;20622;-60
2022/08/01 03:01:40;;;;;;;12.10;6.78;;;;;;;19.86;100.00;101604.69;5107393;27;20104;-61
2022/08/01 03:04:10;;;;;;;13.55;6.93;;;;;;;19.86;100.00;101602.00;5104732;27;20138;-61
2022/08/01 03:06:37;;;;;;;12.73;6.45;;;;;;;19.86;100.00;101602.00;5110797;27;20062;-60
2022/08/01 03:09:06;;;;;;;12.05;6.57;;;;;;;19.88;100.00;101600.00;5096561;27;20079;-59
2022/08/01 03:11:37;;;;;;;11.80;6.57;;;;;;;19.86;100.00;101596.69;5105904;27;20055;-60
2022/08/01 03:14:07;;;;;;;10.25;6.22;;;;;;;19.86;100.00;101590.56;5089248;27;20089;-61
2022/08/01 03:16:37;;;;;;;11.25;6.18;;;;;;;19.88;100.00;101599.16;5116800;27;20578;-60
2022/08/01 03:19:06;;;;;;;11.77;6.45;;;;;;;19.84;100.00;101606.69;5103534;27;20073;-61
2022/08/01 03:21:34;;;;;;;10.13;6.07;;;;;;;19.83;100.00;101607.69;5103765;27;20480;-57
2022/08/01 03:24:02;;;;;;;9.80;5.57;;;;;;;19.84;100.00;101601.38;5100869;27;20054;-59
2022/08/01 03:26:32;;;;;;;9.88;5.47;;;;;;;19.84;100.00;101603.22;5108223;27;20060;-60
2022/08/01 03:29:12;;;;;;;9.48;5.28;;;;;;;19.83;100.00;101601.56;5099361;27;20051;-61
2022/08/01 03:31:42;;;;;;;10.13;5.72;;;;;;;19.84;100.00;101597.91;5107734;27;20063;-61
2022/08/01 03:34:09;;;;;;;9.57;5.63;;;;;;;19.89;100.00;101598.13;5099038;27;20062;-60
2022/08/01 03:36:51;;;;;;;9.50;5.00;;;;;;;19.90;100.00;101595.28;5099889;27;20051;-59
2022/08/01 03:39:21;;;;;;;9.32;5.50;;;;;;;19.88;100.00;101599.16;5113919;27;20449;-61
2022/08/01 03:41:54;;;;;;;9.90;5.30;;;;;;;19.92;100.00;101593.25;5099664;27;20514;-60
2022/08/01 03:44:25;;;;;;;9.13;5.47;;;;;;;19.89;100.00;101598.13;5104819;27;20049;-59
2022/08/01 03:46:59;;;;;;;9.43;5.13;;;;;;;19.91;100.00;101596.09;5094281;27;20053;-60
2022/08/01 03:49:54;;;;;;;7.93;5.28;;;;;;;19.91;100.00;101599.59;5097906;27;20048;-60
2022/08/01 03:52:22;;;;;;;9.55;5.13;;;;;;;19.86;100.00;101607.34;5104141;27;20090;-60
2022/08/01 03:54:54;;;;;;;8.45;4.85;;;;;;;19.87;100.00;101602.81;5107193;27;20055;-58
2022/08/01 03:57:22;;;;;;;9.43;5.40;;;;;;;19.72;100.00;101609.03;5129677;27;20058;-59
2022/08/01 04:00:08;;;;;;;8.57;4.90;;;;;;;19.72;100.00;101613.53;5091669;27;20971;-59
2022/08/01 04:02:36;;;;;;;9.43;4.90;;;;;;;19.68;100.00;101609.53;5101599;27;20214;-60
2022/08/01 04:05:04;;;;;;;8.20;4.65;;;;;;;19.67;100.00;101605.25;5087585;28;20056;-60
2022/08/01 04:07:35;;;;;;;8.05;4.60;;;;;;;19.66;100.00;101620.41;5119002;27;20058;-61
2022/08/01 04:10:02;;;;;;;7.40;4.63;;;;;;;19.61;100.00;101617.47;5099367;27;20047;-61
2022/08/01 04:12:28;;;;;;;7.47;4.47;;;;;;;19.59;100.00;101600.88;5110043;27;20324;-60
2022/08/01 04:14:55;;;;;;;9.27;4.78;;;;;;;19.54;100.00;101608.56;5107302;27;20091;-60
2022/08/01 04:17:21;;;;;;;7.63;4.47;;;;;;;19.47;100.00;101607.69;5085874;27;20398;-59
2022/08/01 04:19:47;;;;;;;6.78;4.22;;;;;;;19.42;100.00;101602.09;5095724;27;20514;-60
2022/08/01 04:22:15;;;;;;;6.40;4.28;;;;;;;19.45;100.00;101607.88;5093963;27;20062;-60
2022/08/01 04:24:48;;;;;;;7.03;4.15;;;;;;;19.51;100.00;101604.44;5100147;27;20122;-61
2022/08/01 04:27:29;;;;;;;7.13;3.83;;;;;;;19.56;100.00;101614.53;5090475;27;20104;-61
2022/08/01 04:30:25;;;;;;;7.95;4.82;;;;;;;19.55;100.00;101611.06;5096916;27;20047;-60
2022/08/01 04:32:55;;;;;;;8.77;4.93;;;;;;;19.55;100.00;101612.91;5102430;27;20051;-59
2022/08/01 04:35:24;;;;;;;8.43;5.30;;;;;;;19.49;100.00;101614.47;5119006;27;20065;-60
2022/08/01 04:38:16;;;;;;;9.75;5.72;;;;;;;19.43;100.00;101620.53;5118863;27;20128;-60
2022/08/01 04:40:48;;;;;;;8.00;5.20;;;;;;;19.51;100.00;101624.91;5100864;27;20047;-60
2022/08/01 04:43:14;;;;;;;11.05;5.70;;;;;;;19.48;100.00;101628.78;5105622;27;20059;-60
2022/08/01 04:45:43;;;;;;;8.82;5.72;;;;;;;19.54;100.00;101629.84;5102302;27;20047;-59
2022/08/01 04:48:11;;;;;;;8.63;5.55;;;;;;;19.56;100.00;101633.16;5098242;28;20054;-60
2022/08/01 04:50:37;;;;;;;9.33;5.63;;;;;;;19.57;100.00;101634.81;5101381;27;20047;-60
2022/08/01 04:53:03;;;;;;;7.20;5.18;;;;;;;19.55;100.00;101642.97;5107537;27;20074;-60
2022/08/01 04:55:31;;;;;;;10.85;5.88;;;;;;;19.60;100.00;101644.25;5117814;27;20058;-61
2022/08/01 04:57:57;;;;;;;8.23;5.88;;;;;;;19.63;100.00;101643.91;5093523;27;20496;-59
2022/08/01 05:00:25;;;;;;;10.33;5.47;;;;;;;19.65;100.00;101650.69;5103807;27;20043;-60
2022/08/01 05:02:51;;;;;;;7.93;5.43;;;;;;;19.67;100.00;101651.31;5091537;27;20047;-60
2022/08/01 05:05:17;;;;;;;9.38;5.97;;;;;;;19.70;100.00;101648.28;5100204;28;20060;-61
2022/08/01 05:07:44;;;;;;;8.10;5.28;;;;;;;19.69;100.00;101649.28;5095768;28;20519;-60
2022/08/01 05:10:11;;;;;;;9.32;6.10;;;;;;;19.72;100.00;101653.47;5100482;28;20114;-60
2022/08/01 05:12:37;;;;;;;7.07;4.72;;;;;;;19.77;100.00;101652.91;5114287;28;20124;-61
2022/08/01 05:15:04;;;;;;;7.82;5.47;;;;;;;19.82;100.00;101656.66;5098736;28;20054;-59
2022/08/01 05:17:31;;;;;;;8.88;5.28;;;;;;;19.82;100.00;101661.97;5107305;28;20058;-61
2022/08/01 05:19:58;;;;;;;7.05;5.15;;;;;;;19.86;100.00;101655.25;5108285;27;20047;-61
2022/08/01 05:22:25;;;;;;;9.30;5.63;;;;;;;19.88;100.00;101652.41;5101336;27;20052;-59
2022/08/01 05:24:52;;;;;;;8.40;5.63;;;;;;;19.92;100.00;101651.03;5097211;28;20058;-60
2022/08/01 05:27:19;;;;;;;9.02;5.30;;;;;;;19.84;100.00;101656.47;5110410;27;20674;-60
2022/08/01 05:29:46;;;;;;;9.17;5.27;;;;;;;19.80;100.00;101652.50;5103832;28;20503;-61
2022/08/01 05:32:13;;;;;;;6.78;5.30;;;;;;;19.83;100.00;101658.28;5106962;27;20513;-61
2022/08/01 05:34:39;;;;;;;9.00;5.80;;;;;;;19.86;100.00;101659.75;5115507;27;20047;-60
2022/08/01 05:37:07;;;;;;;7.72;4.82;;;;;;;19.90;100.00;101675.16;5092520;27;20366;-60
2022/08/01 05:39:33;;;;;;;11.47;5.30;;;;;;;19.91;100.00;101670.66;5113289;27;20052;-60
2022/08/01 05:42:00;;;;;;;9.15;5.38;;;;;;;19.90;100.00;101671.69;5106603;27;20280;-60
2022/08/01 05:44:26;;;;;;;7.45;4.72;;;;;;;19.95;100.00;101669.28;5096844;27;20503;-59
2022/08/01 05:46:53;;;;;;;6.35;4.32;;;;;;;20.03;100.00;101671.84;5114984;27;20050;-61
2022/08/01 05:49:19;;;;;;;7.78;5.05;;;;;;;20.06;100.00;101668.78;5097418;27;20075;-62
2022/08/01 05:51:46;;;;;;;8.63;4.95;;;;;;;20.06;100.00;101674.09;5100988;27;21220;-61
2022/08/01 05:54:12;;;;;;;7.47;4.90;;;;;;;20.07;100.00;101672.25;5104449;27;20050;-60
2022/08/01 05:56:39;;;;;;;7.25;5.03;;;;;;;20.12;100.00;101665.38;5106563;27;20047;-60
2022/08/01 05:59:05;;;;;;;7.20;4.70;;;;;;;20.15;100.00;101665.00;5104644;27;20047;-61
2022/08/01 06:01:32;;;;;;;7.75;5.38;;;;;;;20.09;100.00;101668.41;5105706;27;20547;-59
2022/08/01 06:03:58;;;;;;;7.13;4.50;;;;;;;20.14;100.00;101673.97;5100294;27;20043;-61
2022/08/01 06:06:25;;;;;;;6.55;4.30;;;;;;;20.13;100.00;101674.16;5099941;27;20087;-61
2022/08/01 06:08:52;;;;;;;9.35;4.90;;;;;;;20.19;100.00;101680.59;5110238;27;20047;-58
2022/08/01 06:11:18;;;;;;;7.10;5.10;;;;;;;20.22;100.00;101678.38;5108713;27;20486;-61
2022/08/01 06:13:45;;;;;;;6.97;4.40;;;;;;;20.18;100.00;101678.94;5113218;27;20390;-60
2022/08/01 06:16:14;;;;;;;5.85;4.05;;;;;;;20.17;100.00;101674.63;5122261;27;20054;-59
2022/08/01 06:18:40;;;;;;;7.45;4.43;;;;;;;20.23;100.00;101679.19;5105859;27;20048;-60
2022/08/01 06:21:07;;;;;;;10.65;3.63;;;;;;;20.27;100.00;101681.31;5103583;27;20312;-59
2022/08/01 06:23:33;;;;;;;4.30;3.03;;;;;;;20.35;100.00;101681.19;5104336;27;20058;-60
2022/08/01 06:26:00;;;;;;;4.72;3.08;;;;;;;20.45;100.00;101675.53;5115453;27;20050;-61
2022/08/01 06:28:26;;;;;;;4.35;3.00;;;;;;;20.51;100.00;101680.09;5107077;27;20082;-60
2022/08/01 06:30:53;;;;;;;3.38;2.22;;;;;;;20.56;100.00;101687.50;5105210;27;20051;-61
2022/08/01 06:33:19;;;;;;;3.38;2.20;;;;;;;20.62;100.00;101688.59;5108844;27;20053;-61
2022/08/01 06:35:46;;;;;;;2.28;1.90;;;;;;;20.68;100.00;101682.50;5104391;27;20749;-61
2022/08/01 06:38:12;;;;;;;3.22;1.73;;;;;;;20.72;100.00;101687.28;5110805;27;20055;-60
2022/08/01 06:40:38;;;;;;;1.92;1.40;;;;;;;20.77;100.00;101691.19;5108208;27;20043;-61
2022/08/01 06:43:05;;;;;;;2.63;1.35;;;;;;;20.80;100.00;101698.84;5106991;27;20048;-60
2022/08/01 06:45:31;;;;;;;1.25;0.93;;;;;;;20.85;100.00;101701.72;5111227;27;20055;-60
2022/08/01 06:47:58;;;;;;;1.33;1.10;;;;;;;20.84;100.00;101708.09;5098856;27;20051;-58
2022/08/01 06:50:24;;;;;;;1.35;1.13;;;;;;;20.86;100.00;101708.72;5103604;27;20067;-61
2022/08/01 06:52:51;;;;;;;2.55;1.25;;;;;;;20.85;100.00;101705.22;5105617;27;20043;-61
2022/08/01 06:55:17;;;;;;;1.42;0.80;;;;;;;20.94;100.00;101706.72;5116907;27;20443;-60
2022/08/01 06:57:51;;;;;;;2.50;1.00;;;;;;;20.99;100.00;101708.78;5105081;27;20055;-61
2022/08/01 07:00:22;;;;;;;2.63;1.10;;;;;;;20.98;100.00;101717.03;5104062;27;20605;-60
2022/08/01 07:02:53;;;;;;;1.98;1.20;;;;;;;21.00;100.00;101706.97;5101671;28;20377;-60
2022/08/01 07:05:20;;;;;;;2.55;1.10;;;;;;;20.96;100.00;101714.53;5098435;27;20455;-61
2022/08/01 07:07:46;;;;;;;2.97;1.00;;;;;;;20.86;100.00;101706.88;5110028;27;20200;-59
2022/08/01 07:10:13;;;;;;;1.33;0.95;;;;;;;20.89;100.00;101716.31;5105443;27;20043;-61
2022/08/01 07:12:40;;;;;;;2.55;1.25;;;;;;;20.89;100.00;101711.81;5115745;27;20141;-61
2022/08/01 07:15:09;;;;;;;1.47;0.90;;;;;;;20.91;100.00;101715.13;5104970;27;20059;-60
2022/08/01 07:17:40;;;;;;;2.25;1.10;;;;;;;20.99;100.00;101718.66;5116401;27;20279;-62
2022/08/01 07:20:09;;;;;;;2.15;1.30;;;;;;;21.05;100.00;101709.88;5108407;27;20048;-59
2022/08/01 07:22:37;;;;;;;3.00;1.15;;;;;;;21.08;100.00;101717.50;5095015;28;20048;-60
2022/08/01 07:25:05;;;;;;;2.20;1.27;;;;;;;21.17;100.00;101719.00;5102884;27;20051;-59
2022/08/01 07:27:32;;;;;;;2.97;1.20;;;;;;;21.22;100.00;101726.41;5097827;27;20053;-61
2022/08/01 07:29:58;;;;;;;1.50;1.15;;;;;;;21.32;100.00;101718.88;5111365;27;20484;-58
2022/08/01 07:32:25;;;;;;;2.08;1.20;;;;;;;21.34;100.00;101724.84;5108160;27;20055;-57
2022/08/01 07:34:52;;;;;;;3.72;1.15;;;;;;;21.39;100.00;101722.41;5101559;27;20520;-59
2022/08/01 07:37:18;;;;;;;2.90;1.17;;;;;;;21.49;100.00;101735.44;5106463;27;20503;-59
2022/08/01 07:40:05;;;;;;;1.63;1.05;;;;;;;21.53;100.00;101736.69;5107352;27;20353;-60
2022/08/01 07:42:32;;;;;;;4.55;1.30;;;;;;;21.61;100.00;101731.19;5115728;27;20496;-59
2022/08/01 07:44:58;;;;;;;2.20;1.15;;;;;;;21.61;100.00;101735.72;5100861;27;20188;-59
2022/08/01 07:47:26;;;;;;;1.30;1.08;;;;;;;21.63;100.00;101741.69;5106969;27;20048;-60
2022/08/01 07:49:59;;;;;;;1.30;1.10;;;;;;;21.61;100.00;101738.38;5110748;27;20047;-58
2022/08/01 07:52:26;;;;;;;2.08;1.08;;;;;;;21.62;100.00;101742.69;5112894;27;20051;-59
2022/08/01 07:54:53;;;;;;;2.35;1.27;;;;;;;21.55;100.00;101739.19;5105935;27;20058;-56
2022/08/01 07:57:19;;;;;;;3.38;1.70;;;;;;;21.53;100.00;101750.03;5090322;27;20055;-57
2022/08/01 07:59:46;;;;;;;2.75;1.60;;;;;;;21.53;100.00;101755.38;5108210;27;20662;-60
2022/08/01 08:02:13;;;;;;;2.10;1.33;;;;;;;21.52;100.00;101754.56;5109502;27;20432;-58
2022/08/01 08:04:39;;;;;;;1.42;1.05;;;;;;;21.53;100.00;101750.84;5106334;27;20042;-58
2022/08/01 08:07:08;;;;;;;2.85;1.77;;;;;;;21.52;100.00;101751.91;5101997;27;20455;-59
2022/08/01 08:09:35;;;;;;;1.80;1.23;;;;;;;21.53;100.00;101760.72;5099915;28;20054;-60
2022/08/01 08:12:04;;;;;;;3.90;1.45;;;;;;;21.54;100.00;101765.03;5101487;27;20083;-60
2022/08/01 08:14:30;;;;;;;3.20;1.53;;;;;;;21.58;100.00;101762.78;5102357;27;20105;-58
2022/08/01 08:16:58;;;;;;;2.63;1.50;;;;;;;21.64;100.00;101768.19;5118207;27;20051;-58
2022/08/01 08:19:25;;;;;;;2.40;1.30;;;;;;;21.67;100.00;101769.63;5102728;27;20048;-59
2022/08/01 08:22:03;;;;;;;2.80;1.48;;;;;;;21.69;100.00;101770.25;5116413;27;20051;-59
2022/08/01 08:24:30;;;;;;;3.60;1.25;;;;;;;21.68;100.00;101771.28;5117751;27;20143;-55
2022/08/01 08:26:58;;;;;;;3.45;1.63;;;;;;;21.69;100.00;101768.41;5097531;27;20062;-59
2022/08/01 08:29:26;;;;;;;2.53;1.30;;;;;;;21.65;100.00;101771.66;5100023;28;20059;-59
2022/08/01 08:31:54;;;;;;;2.00;1.48;;;;;;;21.57;100.00;101769.97;5091976;27;20052;-59
2022/08/01 08:34:22;;;;;;;2.83;1.50;;;;;;;21.59;100.00;101769.78;5096958;27;20298;-59
2022/08/01 08:36:49;;;;;;;2.45;1.45;;;;;;;21.59;100.00;101770.59;5110378;27;20725;-57
2022/08/01 08:39:16;;;;;;;3.00;1.50;;;;;;;21.61;100.00;101776.56;5109819;27;20052;-59
2022/08/01 08:41:46;;;;;;;2.85;1.55;;;;;;;21.65;100.00;101775.16;5101063;28;20051;-59
2022/08/01 08:44:16;;;;;;;4.15;1.73;;;;;;;21.69;100.00;101776.41;5106371;27;20529;-57
2022/08/01 08:46:45;;;;;;;2.95;1.30;;;;;;;21.77;100.00;101777.28;5098801;27;20100;-58
2022/08/01 08:49:16;;;;;;;3.83;1.33;;;;;;;21.83;100.00;101779.97;5088775;27;20053;-58
2022/08/01 08:51:46;;;;;;;4.80;1.73;;;;;;;21.85;100.00;101777.13;5100036;27;20519;-59
2022/08/01 08:54:14;;;;;;;3.10;1.40;;;;;;;21.97;100.00;101775.50;5098189;27;20047;-58
2022/08/01 08:56:42;;;;;;;2.08;1.25;;;;;;;22.06;100.00;101776.19;5109610;28;20048;-58
2022/08/01 08:59:08;;;;;;;4.57;1.60;;;;;;;22.17;100.00;101778.28;5100960;27;20047;-57
2022/08/01 09:01:35;;;;;;;6.18;1.50;;;;;;;22.24;100.00;101783.66;5101911;27;20043;-59
2022/08/01 09:04:05;;;;;;;2.58;1.30;;;;;;;22.25;100.00;101785.34;5113164;27;20047;-58
2022/08/01 09:06:32;;;;;;;2.35;1.42;;;;;;;22.33;100.00;101793.16;5100489;27;20448;-58
2022/08/01 09:08:59;;;;;;;2.15;1.23;;;;;;;22.42;100.00;101788.47;5101065;28;20512;-58
2022/08/01 09:11:26;;;;;;;2.70;1.57;;;;;;;22.51;100.00;101798.75;5108872;28;20043;-58
2022/08/01 09:14:11;;;;;;;2.85;1.60;;;;;;;22.55;100.00;101796.50;5094823;28;20374;-58
2022/08/01 09:16:43;;;;;;;3.20;1.33;;;;;;;22.57;100.00;101793.66;5095981;28;20047;-58
2022/08/01 09:19:16;;;;;;;3.13;1.50;;;;;;;22.57;100.00;101796.31;5111354;27;20079;-59
2022/08/01 09:22:05;;;;;;;2.95;1.48;;;;;;;22.57;100.00;101805.16;5103196;28;20059;-59
2022/08/01 09:24:34;;;;;;;2.78;1.85;;;;;;;22.48;100.00;101799.19;5099406;28;20078;-59
2022/08/01 09:27:14;;;;;;;5.95;1.65;;;;;;;22.51;100.00;101808.63;5116006;28;20058;-58
2022/08/01 09:29:41;;;;;;;2.63;1.35;;;;;;;22.43;100.00;101809.66;5094294;28;20046;-59
2022/08/01 09:32:09;;;;;;;4.30;1.80;;;;;;;22.41;100.00;101819.72;5103343;28;20044;-57
2022/08/01 09:34:42;;;;;;;4.35;1.50;;;;;;;22.34;100.00;101816.19;5103295;27;20426;-61
2022/08/01 09:37:09;;;;;;;3.30;1.38;;;;;;;22.31;100.00;101813.94;5105296;28;20059;-59
2022/08/01 09:39:39;;;;;;;3.57;1.40;;;;;;;22.24;100.00;101819.22;5119638;28;20043;-59
2022/08/01 09:42:21;;;;;;;3.80;1.50;;;;;;;22.27;100.00;101824.19;5090442;28;20353;-58
2022/08/01 09:44:55;;;;;;;4.13;1.60;;;;;;;22.15;100.00;101836.44;5097484;28;20074;-58
2022/08/01 09:47:21;;;;;;;4.30;1.60;;;;;;;22.05;100.00;101826.13;5090198;28;20481;-59
2022/08/01 09:49:57;;;;;;;4.20;1.52;;;;;;;22.02;100.00;101823.03;5101422;28;20385;-58
2022/08/01 09:52:26;;;;;;;4.82;2.17;;;;;;;21.97;100.00;101836.97;5089573;28;20545;-57
2022/08/01 09:55:01;;;;;;;5.22;2.30;;;;;;;21.89;100.00;101837.97;5111937;27;20201;-58
2022/08/01 09:57:29;;;;;;;4.82;2.10;;;;;;;21.86;100.00;101838.34;5098517;28;20058;-57
2022/08/01 09:59:59;;;;;;;5.18;2.00;;;;;;;21.77;100.00;101838.69;5100178;28;20050;-57
2022/08/01 10:02:35;;;;;;;3.35;2.10;;;;;;;21.69;100.00;101835.16;5104922;28;20769;-59
2022/08/01 10:05:07;;;;;;;4.15;2.40;;;;;;;21.63;100.00;101841.28;5089327;27;20083;-59
2022/08/01 10:07:58;;;;;;;4.88;2.65;;;;;;;21.58;100.00;101849.06;5112974;27;20108;-59
2022/08/01 10:10:25;;;;;;;5.53;2.97;;;;;;;21.56;100.00;101852.94;5093440;27;20054;-58
2022/08/01 10:12:58;;;;;;;4.72;2.80;;;;;;;21.59;100.00;101848.03;5111920;27;20047;-59
2022/08/01 10:15:29;;;;;;;5.82;3.00;;;;;;;21.65;100.00;101847.25;5118391;27;20201;-59
2022/08/01 10:18:06;;;;;;;5.53;2.80;;;;;;;21.72;100.00;101849.97;5102919;27;20047;-59
2022/08/01 10:20:52;;;;;;;7.45;3.15;;;;;;;21.73;100.00;101856.94;5089900;28;20481;-59
2022/08/01 10:23:26;;;;;;;11.25;3.55;;;;;;;21.82;100.00;101858.47;5097587;28;20101;-65
2022/08/01 10:26:07;;;;;;;7.38;3.22;;;;;;;21.90;100.00;101858.28;5110098;27;20340;-61
2022/08/01 10:28:35;;;;;;;8.98;3.47;;;;;;;21.89;100.00;101854.00;5097507;27;20055;-58
2022/08/01 10:31:07;;;;;;;9.25;3.55;;;;;;;21.90;100.00;101855.63;5106024;27;20042;-60
2022/08/01 10:33:41;;;;;;;7.22;3.30;;;;;;;21.98;100.00;101856.50;5110384;27;20306;-60
2022/08/01 10:36:22;;;;;;;10.20;4.20;;;;;;;22.05;100.00;101858.19;5110398;27;20353;-60
2022/08/01 10:38:51;;;;;;;11.90;3.63;;;;;;;21.99;100.00;101860.81;5100806;27;20048;-59
2022/08/01 10:41:18;;;;;;;8.30;3.20;;;;;;;22.07;100.00;101860.63;5102362;28;20048;-60
2022/08/01 10:43:45;;;;;;;12.20;3.97;;;;;;;22.14;100.00;101860.69;5104449;27;20067;-59
2022/08/01 10:46:12;;;;;;;8.27;3.67;;;;;;;22.23;100.00;101851.50;5093469;27;20535;-60
2022/08/01 10:48:56;;;;;;;8.05;3.58;;;;;;;22.26;100.00;101859.13;5082574;27;20058;-60
2022/08/01 10:51:25;;;;;;;10.57;3.50;;;;;;;22.36;100.00;101848.88;5101449;27;20055;-60
2022/08/01 10:54:12;;;;;;;8.32;3.08;;;;;;;22.42;100.00;101853.44;5113607;27;20639;-59
2022/08/01 10:56:50;;;;;;;10.83;3.67;;;;;;;22.59;100.00;101855.75;5111174;27;20051;-60
2022/08/01 10:59:23;;;;;;;10.48;2.83;;;;;;;22.68;100.00;101858.06;5110272;27;20051;-59
2022/08/01 11:02:09;;;;;;;7.18;2.72;;;;;;;22.64;100.00;101856.81;5104657;27;20051;-62
2022/08/01 11:04:57;;;;;;;8.52;2.88;;;;;;;22.70;100.00;101847.97;5117517;27;20243;-60
2022/08/01 11:07:39;;;;;;;8.48;2.55;;;;;;;22.77;100.00;101861.34;5099841;27;20160;-60
2022/08/01 11:10:29;;;;;;;7.88;2.40;;;;;;;22.69;100.00;101858.88;5102318;27;20054;-60
2022/08/01 11:12:56;;;;;;;8.75;2.05;;;;;;;22.73;100.00;101857.44;5099525;27;20047;-60
2022/08/01 11:15:24;;;;;;;6.60;2.15;;;;;;;22.81;100.00;101856.44;5107801;27;20061;-59
2022/08/01 11:17:58;;;;;;;10.07;2.85;;;;;;;22.79;100.00;101858.47;5107732;27;20058;-60
2022/08/01 11:20:32;;;;;;;6.00;2.58;;;;;;;22.83;100.00;101854.38;5103855;27;20051;-60
2022/08/01 11:22:59;;;;;;;5.97;2.22;;;;;;;22.94;100.00;101851.09;5113938;27;20100;-60
2022/08/01 11:25:33;;;;;;;9.60;2.75;;;;;;;23.01;100.00;101851.09;5093590;27;20100;-60
2022/08/01 11:28:23;;;;;;;5.68;2.60;;;;;;;23.04;100.00;101848.06;5093054;28;20509;-59